Langkawi International Airport Langkawi MY
ICAO: WMKL
IATA: LGK
Category: Medium
Scheduled Services: Yes

Elevation: 29 ft
TransAlt. 11000 ft.

Airport Communications:
APP:119.4
ATIS:128.2
GND:121.8
TWR:118.5

WMKL Zoom In..

If you have problems with the map follow the link
https://www.worldairports.se/pages/airport.php?
ICAO=WMKL

Runways:

(A) RW 03 length 12500 ft width 148 ft
ILS 110.70 / hdg 34

(B) RW 21 length 12500 ft width 148 ft
---- / hdg 214

Location; WMKL
Day. 14 / Time. 08.00 Zulu
* QNH: 1007
* Temperature: 27° c. 80.6°f.
* Wind from: VRB° Speed 03 kn.
Dewpoint: 26° c.
Visibility: 10 km or more.
Clouds: Few 1700 ft.
Clouds: Broken 27000 ft.

WMKL 140800Z VRB03KT 9999 FEW017CB BKN270 27/26 Q1007 RESHRA


Wind From VRB°
Speed 03 kn.

 
 
jpsmedia worldairports.se 2019   terms of use